createdAt,value
2022-11-12T00:04:10.453Z,10.14
2022-11-12T00:09:22.228Z,10.16
2022-11-12T00:14:37.517Z,10.22
2022-11-12T00:19:49.689Z,10.15
2022-11-12T00:25:05.059Z,9.95
2022-11-12T00:30:18.794Z,9.74
2022-11-12T00:35:34.596Z,10.27
2022-11-12T00:40:48.640Z,9.66
2022-11-12T00:46:02.702Z,10.20
2022-11-12T00:51:18.210Z,8.80
2022-11-12T00:56:35.324Z,9.92
2022-11-12T01:02:02.339Z,9.09
2022-11-12T01:07:19.316Z,8.76
2022-11-12T01:12:34.661Z,9.27
2022-11-12T01:17:55.784Z,9.02
2022-11-12T01:23:08.113Z,9.13
2022-11-12T01:28:20.211Z,10.22
2022-11-12T01:33:33.878Z,9.62
2022-11-12T01:38:48.827Z,8.81
2022-11-12T01:44:16.872Z,10.24
2022-11-12T01:49:40.864Z,9.17
2022-11-12T01:54:59.296Z,9.00
2022-11-12T02:00:14.566Z,8.89
2022-11-12T02:05:29.865Z,9.50
2022-11-12T02:10:44.552Z,9.26
2022-11-12T02:15:58.234Z,9.51
2022-11-12T02:21:16.268Z,9.63
2022-11-12T02:26:34.454Z,8.81
2022-11-12T02:31:54.047Z,8.98
2022-11-12T02:37:06.837Z,10.30
2022-11-12T02:42:23.216Z,10.36
2022-11-12T02:47:35.981Z,9.19
2022-11-12T02:52:48.512Z,9.97
2022-11-12T02:58:13.459Z,9.91
2022-11-12T03:03:54.845Z,9.71
2022-11-12T03:09:18.269Z,9.28
2022-11-12T03:15:19.584Z,10.24
2022-11-12T03:21:40.456Z,8.80
2022-11-12T03:27:16.619Z,9.66
2022-11-12T03:32:36.606Z,8.83
2022-11-12T03:38:21.209Z,9.26
2022-11-12T03:44:00.981Z,9.58
2022-11-12T03:49:44.575Z,9.49
2022-11-12T03:55:19.430Z,9.86
2022-11-12T04:00:33.799Z,9.17
2022-11-12T04:06:09.006Z,9.48
2022-11-12T04:11:25.028Z,8.92
2022-11-12T04:17:15.954Z,9.37
2022-11-12T04:22:40.715Z,9.56
2022-11-12T04:28:04.192Z,8.72
2022-11-12T04:33:19.618Z,9.15
2022-11-12T04:38:56.414Z,10.17
2022-11-12T05:02:14.525Z,10.14
2022-11-12T05:08:02.960Z,9.74
2022-11-12T05:35:30.794Z,10.23
2022-11-12T05:40:49.981Z,10.21
2022-11-12T05:46:01.605Z,10.13
2022-11-12T05:51:14.829Z,10.13
2022-11-12T05:56:27.961Z,10.15
2022-11-12T06:01:44.179Z,10.09
2022-11-12T06:06:56.249Z,10.33
2022-11-12T06:12:09.750Z,10.35
2022-11-12T06:17:21.866Z,9.93
2022-11-12T06:22:34.797Z,10.19
2022-11-12T06:27:48.353Z,9.91
2022-11-12T06:33:02.823Z,10.52
2022-11-12T06:38:14.750Z,10.30
2022-11-12T06:43:30.101Z,10.70
2022-11-12T06:48:44.256Z,10.52
2022-11-12T06:53:57.442Z,10.86
2022-11-12T06:59:12.287Z,10.96
2022-11-12T07:04:25.734Z,11.02
2022-11-12T07:09:37.335Z,10.29
2022-11-12T07:14:50.442Z,11.18
2022-11-12T07:20:03.873Z,9.90
2022-11-12T07:25:17.499Z,10.40
2022-11-12T07:30:37.060Z,11.33
2022-11-12T07:35:50.205Z,9.82
2022-11-12T07:41:06.781Z,11.35
2022-11-12T07:46:23.759Z,11.19
2022-11-12T07:51:35.423Z,11.31
2022-11-12T07:56:47.602Z,11.44
2022-11-12T08:02:01.013Z,10.12
2022-11-12T08:07:12.877Z,11.00
2022-11-12T08:12:24.976Z,11.41
2022-11-12T08:17:41.036Z,11.41
2022-11-12T08:22:52.798Z,10.90
2022-11-12T08:28:05.835Z,10.81
2022-11-12T08:33:22.038Z,11.61
2022-11-12T08:38:34.120Z,11.83
2022-11-12T08:43:49.428Z,10.95
2022-11-12T08:49:02.962Z,11.45
2022-11-12T08:54:15.020Z,11.84
2022-11-12T08:59:29.121Z,12.02
2022-11-12T09:04:42.288Z,11.70
2022-11-12T09:09:54.150Z,11.79
2022-11-12T09:15:36.284Z,12.44
2022-11-12T09:20:40.763Z,12.19
2022-11-12T09:25:55.790Z,13.02
2022-11-12T09:31:09.839Z,12.53
2022-11-12T09:36:26.273Z,13.11
2022-11-12T09:41:41.057Z,13.07
2022-11-12T09:46:56.714Z,13.13
2022-11-12T09:52:18.227Z,12.60
2022-11-12T09:57:30.801Z,13.36
2022-11-12T10:02:50.853Z,12.88
2022-11-12T10:08:30.581Z,13.38
2022-11-12T10:13:52.411Z,14.25
2022-11-12T10:19:27.489Z,14.50
2022-11-12T10:24:43.074Z,14.21
2022-11-12T10:30:00.480Z,14.34
2022-11-12T10:35:13.171Z,13.45
2022-11-12T10:40:37.566Z,14.46
2022-11-12T10:45:51.836Z,14.58
2022-11-12T10:51:05.174Z,14.50
2022-11-12T10:56:29.329Z,14.56
2022-11-12T11:01:45.702Z,14.64
2022-11-12T11:07:08.397Z,13.98
2022-11-12T11:12:29.590Z,14.05
2022-11-12T11:17:41.593Z,14.47
2022-11-12T11:22:57.627Z,14.36
2022-11-12T11:28:23.953Z,13.85
2022-11-12T11:33:49.206Z,14.37
2022-11-12T11:39:06.261Z,13.61
2022-11-12T11:44:30.126Z,14.46
2022-11-12T11:50:04.567Z,14.29
2022-11-12T11:55:38.651Z,14.48
2022-11-12T12:01:01.970Z,14.39
2022-11-12T12:06:23.140Z,13.42
2022-11-12T12:11:44.451Z,14.30
2022-11-12T12:17:08.487Z,14.13
2022-11-12T12:22:25.884Z,14.77
2022-11-12T12:27:41.751Z,13.60
2022-11-12T12:33:00.523Z,14.58
2022-11-12T12:38:16.984Z,14.48
2022-11-12T12:43:35.921Z,14.43
2022-11-12T12:48:51.785Z,14.28
2022-11-12T12:54:03.692Z,14.40
2022-11-12T12:59:24.165Z,14.40
2022-11-12T13:04:55.171Z,14.33
2022-11-12T13:10:35.896Z,14.41
2022-11-12T13:15:53.241Z,13.35
2022-11-12T13:21:14.880Z,13.58
2022-11-12T13:26:54.963Z,14.47
2022-11-12T13:32:45.144Z,13.29
2022-11-12T13:38:06.488Z,14.08
2022-11-12T13:43:35.689Z,13.92
2022-11-12T13:48:51.910Z,13.90
2022-11-12T13:54:30.746Z,13.26
2022-11-12T13:59:47.315Z,13.74
2022-11-12T14:04:59.384Z,13.59
2022-11-12T14:10:33.315Z,13.26
2022-11-12T14:16:06.749Z,13.51
2022-11-12T14:21:25.457Z,13.08
2022-11-12T14:26:41.216Z,14.27
2022-11-12T14:32:07.976Z,13.19
2022-11-12T14:37:39.955Z,13.77
2022-11-12T14:42:56.936Z,14.23
2022-11-12T14:48:11.391Z,13.42
2022-11-12T14:53:28.686Z,13.50
2022-11-12T14:58:43.472Z,14.19
2022-11-12T15:04:21.542Z,13.98
2022-11-12T15:09:37.728Z,14.18
2022-11-12T15:14:53.408Z,12.93
2022-11-12T15:20:15.162Z,13.43
2022-11-12T15:25:30.185Z,13.67
2022-11-12T15:30:43.731Z,13.92
2022-11-12T15:36:07.688Z,13.56
2022-11-12T15:41:28.645Z,12.62
2022-11-12T15:46:42.699Z,12.80
2022-11-12T15:51:54.745Z,13.37
2022-11-12T15:57:14.920Z,13.61
2022-11-12T16:02:41.486Z,13.41
2022-11-12T16:07:53.631Z,13.44
2022-11-12T16:13:08.320Z,12.52
2022-11-12T16:18:23.611Z,13.43
2022-11-12T16:23:40.808Z,13.09
2022-11-12T16:28:52.505Z,11.88
2022-11-12T16:34:10.166Z,11.75
2022-11-12T16:39:25.635Z,12.80
2022-11-12T16:44:46.626Z,11.18
2022-11-12T16:50:01.159Z,12.11
2022-11-12T16:55:13.247Z,11.44
2022-11-12T17:00:29.787Z,11.83
2022-11-12T17:05:51.948Z,10.84
2022-11-12T17:11:10.714Z,12.16
2022-11-12T17:16:23.492Z,11.30
2022-11-12T17:21:37.866Z,12.01
2022-11-12T17:26:49.891Z,11.94
2022-11-12T17:32:04.464Z,11.47
2022-11-12T17:37:17.555Z,11.80
2022-11-12T17:42:43.130Z,11.53
2022-11-12T17:47:55.213Z,11.47
2022-11-12T17:53:08.546Z,11.61
2022-11-12T17:58:20.348Z,11.44
2022-11-12T18:03:41.233Z,11.20
2022-11-12T18:08:56.364Z,11.10
2022-11-12T18:14:08.774Z,11.15
2022-11-12T18:19:20.550Z,11.24
2022-11-12T18:24:34.286Z,10.45
2022-11-12T18:29:47.124Z,11.06
2022-11-12T18:34:58.988Z,10.96
2022-11-12T18:40:12.489Z,10.72
2022-11-12T18:45:24.303Z,10.66
2022-11-12T18:50:36.375Z,10.95
2022-11-12T18:55:49.813Z,10.60
2022-11-12T19:01:03.873Z,10.81
2022-11-12T19:06:16.773Z,10.50
2022-11-12T19:11:30.377Z,10.28
2022-11-12T19:16:44.899Z,10.63
2022-11-12T19:22:00.092Z,10.22
2022-11-12T19:27:13.414Z,10.57
2022-11-12T19:32:24.951Z,10.45
2022-11-12T19:37:36.635Z,10.54
2022-11-12T19:42:52.284Z,10.65
2022-11-12T19:48:04.542Z,10.58
2022-11-12T19:53:16.569Z,10.45
2022-11-12T19:58:31.945Z,10.25
2022-11-12T20:03:44.110Z,10.03
2022-11-12T20:08:59.611Z,9.72
2022-11-12T20:14:12.792Z,9.78
2022-11-12T20:19:24.700Z,9.76
2022-11-12T20:24:36.431Z,9.85
2022-11-12T20:29:52.471Z,9.78
2022-11-12T20:35:10.356Z,9.72
2022-11-12T20:40:25.854Z,9.61
2022-11-12T20:45:39.114Z,9.60
2022-11-12T20:51:16.756Z,9.47
2022-11-12T20:56:26.979Z,9.45
2022-11-12T21:01:40.802Z,9.47
2022-11-12T21:06:53.904Z,9.25
2022-11-12T21:12:06.054Z,8.46
2022-11-12T21:17:19.965Z,8.50
2022-11-12T21:22:33.834Z,8.80
2022-11-12T21:27:45.697Z,8.73
2022-11-12T21:32:58.926Z,8.66
2022-11-12T21:38:10.838Z,8.49
2022-11-12T21:43:22.860Z,8.85
2022-11-12T21:48:36.198Z,8.73
2022-11-12T21:53:48.583Z,8.43
2022-11-12T21:59:01.505Z,8.63
2022-11-12T22:04:18.314Z,8.82
2022-11-12T22:09:32.471Z,8.29
2022-11-12T22:14:44.244Z,8.15
2022-11-12T22:19:57.613Z,7.68
2022-11-12T22:25:14.096Z,8.17
2022-11-12T22:30:25.794Z,7.62
2022-11-12T22:35:39.531Z,8.05
2022-11-12T22:40:51.151Z,7.94
2022-11-12T22:46:07.329Z,7.83
2022-11-12T22:51:22.150Z,7.72
2022-11-12T22:56:34.391Z,7.38
2022-11-12T23:01:46.328Z,7.35
2022-11-12T23:07:01.896Z,7.51
2022-11-12T23:12:16.495Z,7.68
2022-11-12T23:17:33.082Z,7.60
2022-11-12T23:22:46.280Z,7.21
2022-11-12T23:27:57.976Z,7.63
2022-11-12T23:33:10.183Z,7.70
2022-11-12T23:38:23.190Z,7.66
2022-11-12T23:43:35.417Z,7.27
2022-11-12T23:48:47.244Z,7.04
2022-11-12T23:54:00.339Z,6.53
2022-11-12T23:59:11.945Z,7.17
